Time;durP1;ratioP1;P1;durP2;ratioP2;P2;SDS_P1;SDS_P2;PMS_P1;PMS_P2;Temp;Humidity;BMP_temperature;BMP_pressure;BME280_temperature;BME280_humidity;BME280_pressure;Samples;Min_cycle;Max_cycle;Signal;HPM_P1;HPM_P2
2022/04/13 00:01:07;;;;;;;15.45;7.60;;;;;;;9.30;100.00;99887.44;6283042;22;20014;-72
2022/04/13 00:03:32;;;;;;;21.42;7.45;;;;;;;9.30;100.00;99878.41;6253239;22;20106;-73
2022/04/13 00:06:05;;;;;;;17.63;6.80;;;;;;;9.35;100.00;99883.88;6255891;22;20060;-74
2022/04/13 00:08:31;;;;;;;13.25;5.90;;;;;;;9.41;100.00;99885.53;6256495;22;20038;-74
2022/04/13 00:10:57;;;;;;;18.75;6.32;;;;;;;9.41;100.00;99885.53;6282885;22;20008;-72
2022/04/13 00:13:22;;;;;;;16.85;5.95;;;;;;;9.35;99.55;99887.41;6280372;22;20007;-74
2022/04/13 00:15:48;;;;;;;12.23;5.63;;;;;;;9.30;99.41;99883.84;6255283;22;20003;-73
2022/04/13 00:18:14;;;;;;;15.10;6.32;;;;;;;9.29;99.99;99893.97;6281425;22;20003;-74
2022/04/13 00:20:39;;;;;;;13.35;6.95;;;;;;;9.24;100.00;99889.31;6280553;22;20011;-71
2022/04/13 00:23:06;;;;;;;18.67;6.88;;;;;;;9.18;100.00;99887.66;6245534;22;20226;-72
2022/04/13 00:25:33;;;;;;;17.15;5.57;;;;;;;9.10;100.00;99901.84;6249846;23;20055;-72
2022/04/13 00:27:59;;;;;;;15.27;6.38;;;;;;;9.05;100.00;99904.53;6251113;23;20008;-72
2022/04/13 00:30:24;;;;;;;14.15;5.72;;;;;;;9.04;100.00;99902.91;6251183;23;20513;-72
2022/04/13 00:32:50;;;;;;;13.32;6.13;;;;;;;8.99;100.00;99897.44;6224964;23;20011;-72
2022/04/13 00:35:15;;;;;;;8.73;5.32;;;;;;;8.98;100.00;99901.25;6250517;23;20004;-73
2022/04/13 00:37:41;;;;;;;11.57;5.68;;;;;;;8.96;100.00;99908.88;6226553;23;20038;-73
2022/04/13 00:40:07;;;;;;;18.90;5.45;;;;;;;8.87;100.00;99909.38;6224082;23;20008;-73
2022/04/13 00:42:33;;;;;;;13.13;6.13;;;;;;;8.88;100.00;99904.78;6253252;23;20008;-72
2022/04/13 00:44:58;;;;;;;8.75;5.15;;;;;;;8.96;100.00;99919.78;6224280;23;20008;-72
2022/04/13 00:47:24;;;;;;;12.95;5.70;;;;;;;9.04;100.00;99911.91;6250959;23;20000;-74
2022/04/13 00:49:50;;;;;;;9.30;5.45;;;;;;;9.11;100.00;99908.09;6248569;23;20008;-74
2022/04/13 00:52:19;;;;;;;15.27;6.53;;;;;;;9.21;100.00;99919.03;6227427;23;20038;-73
2022/04/13 00:54:47;;;;;;;13.25;5.65;;;;;;;9.30;100.00;99924.78;6224936;23;20551;-72
2022/04/13 00:57:15;;;;;;;13.13;4.93;;;;;;;9.34;100.00;99923.16;6249712;23;20034;-74
2022/04/13 00:59:43;;;;;;;15.65;5.22;;;;;;;9.33;100.00;99918.78;6247991;23;20012;-73
2022/04/13 01:02:09;;;;;;;9.90;5.13;;;;;;;9.32;100.00;99912.53;6221956;23;20035;-74
2022/04/13 01:04:36;;;;;;;9.85;4.97;;;;;;;9.35;100.00;99930.28;6252572;23;20000;-74
2022/04/13 01:07:03;;;;;;;9.75;6.07;;;;;;;9.39;100.00;99925.91;6222273;23;20015;-73
2022/04/13 01:09:30;;;;;;;12.95;6.03;;;;;;;9.43;99.63;99922.38;6225490;23;20378;-74
2022/04/13 01:11:56;;;;;;;13.77;5.88;;;;;;;9.44;100.00;99920.44;6224831;23;20019;-74
2022/04/13 01:14:21;;;;;;;24.35;6.45;;;;;;;9.47;99.53;99924.56;6223262;23;20000;-74
2022/04/13 01:16:47;;;;;;;10.05;5.82;;;;;;;9.48;99.09;99924.28;6223477;23;20019;-74
2022/04/13 01:19:16;;;;;;;11.68;5.95;;;;;;;9.47;98.95;99917.19;6248739;23;20110;-73
2022/04/13 01:21:52;;;;;;;17.25;5.95;;;;;;;9.51;99.38;99931.94;6247515;23;20038;-75
2022/04/13 01:24:18;;;;;;;15.38;5.75;;;;;;;9.49;99.05;99927.81;6262106;22;20019;-74
2022/04/13 01:26:44;;;;;;;14.25;5.15;;;;;;;9.46;98.61;99923.72;6280948;22;20088;-73
2022/04/13 01:29:10;;;;;;;12.02;5.25;;;;;;;9.43;98.79;99937.91;6314402;22;20027;-74
2022/04/13 01:31:35;;;;;;;9.63;4.88;;;;;;;9.41;98.63;99929.19;6285704;22;20084;-75
2022/04/13 01:34:01;;;;;;;14.10;5.45;;;;;;;9.44;99.11;99936.81;6287707;22;19999;-74
2022/04/13 01:36:27;;;;;;;10.40;5.28;;;;;;;9.43;99.02;99938.75;6320042;22;20007;-73
2022/04/13 01:38:52;;;;;;;10.23;5.47;;;;;;;9.41;99.21;99926.47;6317391;22;20007;-74
2022/04/13 01:41:18;;;;;;;10.13;4.63;;;;;;;9.44;98.94;99931.38;6312671;22;20022;-73
2022/04/13 01:43:43;;;;;;;16.30;5.28;;;;;;;9.44;99.17;99934.09;6279151;22;20007;-73
2022/04/13 01:46:09;;;;;;;13.57;4.93;;;;;;;9.48;98.83;99946.13;6313401;22;20011;-73
2022/04/13 01:48:35;;;;;;;11.45;5.00;;;;;;;9.51;99.11;99939.31;6262701;22;20473;-72
2022/04/13 01:51:00;;;;;;;10.35;4.88;;;;;;;9.50;98.54;99943.94;6313326;22;20564;-74
2022/04/13 01:53:27;;;;;;;11.48;4.50;;;;;;;9.48;99.09;99940.66;6286186;22;20003;-73
2022/04/13 01:55:57;;;;;;;8.25;4.65;;;;;;;9.46;98.90;99942.81;6311594;22;20030;-74
2022/04/13 01:58:23;;;;;;;11.73;4.80;;;;;;;9.38;98.88;99937.91;6261259;22;20022;-74
2022/04/13 02:00:53;;;;;;;6.75;4.15;;;;;;;9.23;98.97;99934.06;6286248;22;20007;-72
2022/04/13 02:03:20;;;;;;;13.52;4.35;;;;;;;9.12;99.00;99943.28;6312732;22;20002;-74
2022/04/13 02:05:46;;;;;;;13.07;4.28;;;;;;;8.99;99.33;99932.88;6313380;22;20018;-72
2022/04/13 02:08:14;;;;;;;9.63;4.68;;;;;;;8.93;99.65;99939.41;6287636;22;20401;-74
2022/04/13 02:10:40;;;;;;;18.00;4.78;;;;;;;8.84;100.00;99942.66;6286136;22;20402;-74
2022/04/13 02:13:05;;;;;;;12.85;4.50;;;;;;;8.78;100.00;99941.00;6262688;22;20015;-73
2022/04/13 02:15:30;;;;;;;4.93;3.88;;;;;;;8.73;100.00;99940.94;6285548;22;20069;-72
2022/04/13 02:17:56;;;;;;;8.65;3.92;;;;;;;8.69;100.00;99937.16;6285292;22;20007;-74
2022/04/13 02:20:22;;;;;;;5.53;3.00;;;;;;;8.62;100.00;99923.75;6317258;22;20074;-73
2022/04/13 02:22:48;;;;;;;5.93;3.50;;;;;;;8.58;100.00;99930.00;6313392;22;20011;-73
2022/04/13 02:25:14;;;;;;;8.52;4.03;;;;;;;8.59;100.00;99928.91;6287952;22;20092;-72
2022/04/13 02:27:40;;;;;;;7.57;3.50;;;;;;;8.61;100.00;99929.47;6261946;22;20379;-73
2022/04/13 02:30:06;;;;;;;12.45;4.97;;;;;;;8.64;100.00;99937.09;6315947;22;20014;-73
2022/04/13 02:32:31;;;;;;;11.32;4.22;;;;;;;8.74;100.00;99948.06;6280895;22;20007;-72
2022/04/13 02:34:57;;;;;;;11.95;3.45;;;;;;;8.82;100.00;99946.72;6311197;22;20011;-72
2022/04/13 02:37:22;;;;;;;7.28;3.83;;;;;;;8.85;100.00;99948.94;6311882;22;20007;-71
2022/04/13 02:39:48;;;;;;;7.53;3.80;;;;;;;8.89;100.00;99950.88;6311717;22;20014;-72
2022/04/13 02:42:14;;;;;;;5.45;3.05;;;;;;;8.97;100.00;99962.34;6312998;22;20067;-72
2022/04/13 02:44:44;;;;;;;5.10;3.38;;;;;;;9.01;100.00;99968.88;6284103;22;20007;-72
2022/04/13 02:47:10;;;;;;;5.85;2.72;;;;;;;9.08;100.00;99964.00;6285976;22;20018;-71
2022/04/13 02:49:36;;;;;;;4.47;3.13;;;;;;;9.17;100.00;99967.88;6313330;22;19999;-72
2022/04/13 02:52:02;;;;;;;9.43;3.92;;;;;;;9.22;100.00;99967.88;6315751;22;20015;-73
2022/04/13 02:54:27;;;;;;;7.97;3.13;;;;;;;9.26;99.84;99968.97;6313806;22;20007;-71
2022/04/13 02:56:53;;;;;;;9.73;4.07;;;;;;;9.31;99.51;99975.56;6283874;22;20489;-72
2022/04/13 02:59:18;;;;;;;8.25;3.83;;;;;;;9.36;99.19;99981.84;6285585;22;20094;-71
2022/04/13 03:01:43;;;;;;;10.13;3.90;;;;;;;9.39;99.32;99972.31;6280882;22;20445;-72
2022/04/13 03:04:09;;;;;;;10.43;4.13;;;;;;;9.43;98.47;99965.19;6286722;22;20019;-71
2022/04/13 03:06:35;;;;;;;8.75;3.65;;;;;;;9.50;98.38;99971.22;6258333;22;20026;-74
2022/04/13 03:09:03;;;;;;;7.15;3.85;;;;;;;9.54;98.40;99966.88;6312632;22;20038;-72
2022/04/13 03:11:29;;;;;;;6.32;3.78;;;;;;;9.59;98.12;99975.09;6314063;22;20007;-72
2022/04/13 03:13:55;;;;;;;7.15;3.45;;;;;;;9.65;98.25;99969.59;6281508;22;20086;-72
2022/04/13 03:16:20;;;;;;;10.65;3.80;;;;;;;9.68;98.24;99972.63;6285481;22;20011;-71
2022/04/13 03:18:46;;;;;;;6.82;3.95;;;;;;;9.72;97.96;99972.91;6281219;22;20011;-73
2022/04/13 03:21:11;;;;;;;8.13;3.45;;;;;;;9.76;97.72;99979.47;6283168;22;20433;-73
2022/04/13 03:23:36;;;;;;;5.28;3.65;;;;;;;9.78;98.02;99980.84;6257920;22;20015;-73
2022/04/13 03:26:02;;;;;;;7.53;3.45;;;;;;;9.80;97.42;99969.63;6311716;22;20045;-72
2022/04/13 03:28:27;;;;;;;5.25;3.40;;;;;;;9.86;97.38;99979.47;6314638;22;20011;-72
2022/04/13 03:30:53;;;;;;;11.45;4.13;;;;;;;9.87;96.95;99981.13;6282660;22;19999;-74
2022/04/13 03:33:19;;;;;;;5.80;3.80;;;;;;;9.89;97.29;99978.91;6287540;22;19999;-73
2022/04/13 03:35:44;;;;;;;7.88;4.13;;;;;;;9.92;96.60;99983.84;6284136;22;20018;-73
2022/04/13 03:38:10;;;;;;;14.50;4.13;;;;;;;9.92;96.59;99977.56;6312650;22;20014;-72
2022/04/13 03:40:35;;;;;;;8.02;4.68;;;;;;;9.95;96.29;99994.22;6257578;22;20093;-74
2022/04/13 03:43:01;;;;;;;17.92;4.93;;;;;;;9.98;95.80;99998.31;6283234;22;20034;-74
2022/04/13 03:45:26;;;;;;;8.63;4.47;;;;;;;9.98;95.73;99994.78;6284648;22;20019;-74
2022/04/13 03:47:51;;;;;;;13.38;5.55;;;;;;;9.98;95.30;99994.78;6284519;22;20011;-72
2022/04/13 03:50:17;;;;;;;14.68;4.75;;;;;;;9.94;95.45;99992.59;6260751;22;20007;-73
2022/04/13 03:52:43;;;;;;;11.93;5.05;;;;;;;9.95;95.70;100004.31;6285765;22;20007;-73
2022/04/13 03:55:09;;;;;;;12.07;4.75;;;;;;;9.91;95.70;99997.75;6313256;22;20003;-74
2022/04/13 03:57:35;;;;;;;7.85;4.85;;;;;;;9.91;95.99;99998.56;6283935;22;20003;-75
2022/04/13 04:00:01;;;;;;;7.18;3.53;;;;;;;9.93;95.72;100007.34;6284337;22;20026;-74
2022/04/13 04:02:26;;;;;;;7.13;4.47;;;;;;;9.93;95.73;100007.34;6316720;22;20014;-74
2022/04/13 04:04:52;;;;;;;16.20;5.22;;;;;;;9.93;95.34;100012.00;6262090;22;20003;-74
2022/04/13 04:07:17;;;;;;;7.80;4.05;;;;;;;9.94;95.50;100019.91;6259584;22;20000;-73
2022/04/13 04:09:44;;;;;;;9.88;4.07;;;;;;;9.94;95.66;100014.44;6288536;22;20011;-73
2022/04/13 04:12:10;;;;;;;9.60;4.70;;;;;;;9.98;95.40;100025.63;6287287;22;20010;-73
2022/04/13 04:14:35;;;;;;;5.82;3.95;;;;;;;10.02;95.36;100025.94;6287266;22;20003;-73
2022/04/13 04:17:01;;;;;;;9.98;4.03;;;;;;;10.02;95.24;100028.66;6262491;22;20007;-73
2022/04/13 04:19:26;;;;;;;9.48;4.07;;;;;;;10.07;94.86;100034.09;6286308;22;20081;-72
2022/04/13 04:21:51;;;;;;;6.35;3.95;;;;;;;10.11;95.00;100029.75;6261271;22;20091;-73
2022/04/13 04:24:17;;;;;;;6.10;4.20;;;;;;;10.10;94.76;100028.09;6315611;22;20457;-73
2022/04/13 04:26:43;;;;;;;10.93;4.72;;;;;;;10.12;94.14;100028.66;6289302;22;20003;-73
2022/04/13 04:29:09;;;;;;;6.88;4.43;;;;;;;10.12;94.66;100025.94;6288363;22;20007;-73
2022/04/13 04:31:49;;;;;;;8.90;4.78;;;;;;;10.14;94.13;100030.00;6291551;22;20011;-72
2022/04/13 04:34:15;;;;;;;12.45;4.13;;;;;;;10.19;93.84;100036.56;6286852;22;20000;-71
2022/04/13 04:36:42;;;;;;;9.02;4.80;;;;;;;10.19;93.51;100037.41;6283524;22;20007;-71
2022/04/13 04:39:07;;;;;;;6.70;4.35;;;;;;;10.21;93.96;100035.22;6312111;22;20011;-70
2022/04/13 04:41:33;;;;;;;9.02;4.03;;;;;;;10.25;93.48;100038.22;6308745;22;20099;-70
2022/04/13 04:43:59;;;;;;;5.90;3.83;;;;;;;10.24;93.93;100040.13;6282250;22;20014;-71
2022/04/13 04:46:24;;;;;;;6.82;3.92;;;;;;;10.22;93.37;100036.84;6311264;22;20007;-72
2022/04/13 04:48:49;;;;;;;6.53;3.50;;;;;;;10.22;93.42;100042.31;6311548;22;20000;-72
2022/04/13 04:51:15;;;;;;;5.20;3.45;;;;;;;10.23;93.68;100046.69;6284935;22;20003;-70
2022/04/13 04:53:41;;;;;;;6.22;3.67;;;;;;;10.23;93.49;100041.22;6232857;22;20015;-71
2022/04/13 04:56:07;;;;;;;12.35;4.50;;;;;;;10.22;93.33;100041.50;6311893;22;20015;-71
2022/04/13 04:58:33;;;;;;;8.88;4.18;;;;;;;10.21;92.92;100046.16;6310172;22;20007;-72
2022/04/13 05:00:58;;;;;;;8.23;3.40;;;;;;;10.17;93.08;100036.84;6283127;22;20011;-71
2022/04/13 05:03:23;;;;;;;6.95;3.97;;;;;;;10.19;92.93;100053.81;6308879;22;20013;-71
2022/04/13 05:05:49;;;;;;;6.40;3.60;;;;;;;10.20;92.91;100055.44;6282959;22;20007;-70
2022/04/13 05:08:14;;;;;;;12.50;4.80;;;;;;;10.23;92.64;100054.06;6282441;22;20003;-71
2022/04/13 05:10:42;;;;;;;7.97;4.43;;;;;;;10.21;92.66;100057.06;6284062;22;20424;-71
2022/04/13 05:13:09;;;;;;;9.13;4.43;;;;;;;10.19;92.58;100056.53;6311271;22;20009;-71
2022/04/13 05:15:34;;;;;;;6.60;3.80;;;;;;;10.19;92.69;100059.28;6313972;22;19999;-69
2022/04/13 05:18:00;;;;;;;6.93;3.35;;;;;;;10.16;92.80;100064.44;6284828;22;20315;-71
2022/04/13 05:20:25;;;;;;;5.70;3.53;;;;;;;10.19;92.70;100075.66;6313626;22;20003;-71
2022/04/13 05:22:51;;;;;;;6.50;3.25;;;;;;;10.19;92.67;100072.94;6310636;22;20632;-71
2022/04/13 05:25:16;;;;;;;6.97;3.40;;;;;;;10.20;92.66;100071.81;6311477;22;20065;-70
2022/04/13 05:27:43;;;;;;;7.45;3.55;;;;;;;10.20;92.36;100071.81;6313353;22;20056;-70
2022/04/13 05:30:10;;;;;;;9.07;4.20;;;;;;;10.19;92.86;100072.94;6309571;22;20025;-70
2022/04/13 05:32:46;;;;;;;9.13;4.25;;;;;;;10.22;92.53;100080.59;6284067;22;20102;-71
2022/04/13 05:35:11;;;;;;;10.88;4.60;;;;;;;10.23;92.39;100075.94;6283515;22;20017;-71
2022/04/13 05:37:37;;;;;;;10.05;4.32;;;;;;;10.24;92.13;100083.84;6282836;22;20106;-70
2022/04/13 05:40:03;;;;;;;12.90;5.25;;;;;;;10.26;91.90;100080.84;6314718;22;20007;-71
2022/04/13 05:42:31;;;;;;;9.80;5.10;;;;;;;10.23;91.58;100082.19;6279569;22;20011;-71
2022/04/13 05:44:57;;;;;;;12.70;5.03;;;;;;;10.26;92.34;100092.59;6312002;22;20158;-71
2022/04/13 05:47:22;;;;;;;6.78;4.20;;;;;;;10.27;92.07;100085.22;6311680;22;20030;-69
2022/04/13 05:49:47;;;;;;;16.65;5.30;;;;;;;10.31;92.15;100095.34;6281733;22;20008;-68
2022/04/13 05:52:13;;;;;;;17.58;5.80;;;;;;;10.31;91.87;100095.34;6308920;22;20078;-69
2022/04/13 05:54:39;;;;;;;10.65;5.35;;;;;;;10.29;91.67;100103.00;6279571;22;20057;-69
2022/04/13 05:57:04;;;;;;;7.70;4.55;;;;;;;10.31;91.57;100098.06;6254040;22;20007;-68
2022/04/13 05:59:30;;;;;;;8.13;4.97;;;;;;;10.38;91.48;100107.94;6266685;22;20014;-69
2022/04/13 06:01:55;;;;;;;9.10;4.10;;;;;;;10.44;91.53;100109.56;6292622;22;20078;-70
2022/04/13 06:04:22;;;;;;;13.30;5.30;;;;;;;10.49;91.44;100109.59;6318731;22;20007;-70
2022/04/13 06:06:47;;;;;;;13.88;5.43;;;;;;;10.52;91.46;100111.78;6292432;22;20011;-69
2022/04/13 06:09:13;;;;;;;4.78;3.53;;;;;;;10.55;91.42;100113.97;6322582;22;19998;-69
2022/04/13 06:11:38;;;;;;;7.50;4.35;;;;;;;10.60;91.31;100127.66;6294023;22;20010;-71
2022/04/13 06:14:04;;;;;;;9.20;4.40;;;;;;;10.69;90.60;100133.38;6285556;22;19999;-70
2022/04/13 06:16:29;;;;;;;11.43;4.03;;;;;;;10.74;90.29;100136.09;6308745;22;20444;-71
2022/04/13 06:18:55;;;;;;;5.50;3.33;;;;;;;10.76;90.30;100144.88;6258373;22;20007;-72
2022/04/13 06:21:20;;;;;;;6.90;3.60;;;;;;;10.79;90.56;100146.22;6281097;22;20089;-72
2022/04/13 06:23:47;;;;;;;7.05;3.58;;;;;;;10.85;90.03;100142.41;6311755;22;20028;-70
2022/04/13 06:26:12;;;;;;;7.78;3.60;;;;;;;10.90;89.58;100153.31;6311038;22;20043;-70
2022/04/13 06:28:40;;;;;;;8.20;4.43;;;;;;;10.95;89.21;100158.81;6283299;22;20372;-72
2022/04/13 06:31:06;;;;;;;11.48;4.95;;;;;;;11.00;88.53;100161.53;6258218;22;20007;-71
2022/04/13 06:33:31;;;;;;;6.07;3.65;;;;;;;11.06;88.27;100169.75;6257976;22;20011;-73
2022/04/13 06:35:58;;;;;;;8.40;4.45;;;;;;;11.16;88.21;100175.19;6282194;22;20007;-70
2022/04/13 06:38:23;;;;;;;7.35;4.03;;;;;;;11.20;88.05;100170.81;6284103;22;20031;-71
2022/04/13 06:40:48;;;;;;;6.07;4.30;;;;;;;11.26;87.83;100180.66;6282025;22;20007;-70
2022/04/13 06:43:14;;;;;;;9.38;4.65;;;;;;;11.30;87.24;100195.44;6283191;22;20015;-71
2022/04/13 06:45:40;;;;;;;6.15;4.20;;;;;;;11.26;87.10;100190.78;6283504;22;19999;-71
2022/04/13 06:48:07;;;;;;;7.95;4.20;;;;;;;11.32;86.47;100195.97;6283373;22;20015;-72
2022/04/13 06:50:33;;;;;;;12.07;4.13;;;;;;;11.35;86.72;100198.16;6282646;22;20007;-71
2022/04/13 06:52:59;;;;;;;20.17;5.70;;;;;;;11.38;86.94;100204.19;6307938;22;20346;-72
2022/04/13 06:55:25;;;;;;;10.13;4.90;;;;;;;11.44;86.04;100211.28;6258388;22;19999;-71
2022/04/13 06:57:50;;;;;;;12.13;5.63;;;;;;;11.52;86.52;100205.22;6283852;22;20023;-72
2022/04/13 07:00:16;;;;;;;11.45;4.72;;;;;;;11.68;86.13;100209.59;6309881;22;20017;-73
2022/04/13 07:02:42;;;;;;;10.18;5.22;;;;;;;11.85;85.36;100214.72;6313543;22;20487;-72
2022/04/13 07:05:08;;;;;;;19.15;5.82;;;;;;;11.95;84.75;100208.41;6309079;22;20006;-69
2022/04/13 07:07:33;;;;;;;13.60;4.93;;;;;;;12.02;84.03;100208.13;6310804;22;20017;-73
2022/04/13 07:09:59;;;;;;;15.35;5.63;;;;;;;12.09;83.68;100208.63;6286735;22;20007;-73
2022/04/13 07:12:24;;;;;;;13.48;5.50;;;;;;;12.25;82.91;100217.59;6284342;22;20007;-73
2022/04/13 07:14:50;;;;;;;9.63;4.80;;;;;;;12.42;82.78;100216.41;6312475;22;20014;-73
2022/04/13 07:17:15;;;;;;;12.82;5.35;;;;;;;12.67;81.91;100213.47;6262505;22;20433;-70
2022/04/13 07:19:41;;;;;;;11.82;5.28;;;;;;;12.96;80.80;100220.16;6284817;22;20006;-70
2022/04/13 07:22:06;;;;;;;15.95;5.38;;;;;;;13.19;80.20;100224.06;6282773;22;20003;-72
2022/04/13 07:24:32;;;;;;;16.88;5.45;;;;;;;13.55;78.65;100219.06;6277379;22;20098;-70
2022/04/13 07:26:58;;;;;;;10.95;4.60;;;;;;;13.93;77.55;100226.59;6304388;22;20469;-69
2022/04/13 07:29:23;;;;;;;17.50;5.10;;;;;;;14.14;75.83;100214.25;6281023;22;20007;-71
2022/04/13 07:31:49;;;;;;;11.15;4.30;;;;;;;14.43;75.48;100240.00;6308050;22;20425;-70
2022/04/13 07:34:14;;;;;;;16.85;5.05;;;;;;;14.73;73.70;100246.22;6305506;22;19999;-69
2022/04/13 07:36:40;;;;;;;8.45;4.05;;;;;;;14.78;73.12;100255.22;6308002;22;20064;-69
2022/04/13 07:39:05;;;;;;;11.27;4.05;;;;;;;15.10;72.54;100256.38;6272274;22;20065;-69
2022/04/13 07:41:31;;;;;;;12.57;4.47;;;;;;;15.28;72.36;100248.38;6307425;22;20070;-71
2022/04/13 07:43:57;;;;;;;13.15;4.38;;;;;;;15.26;70.36;100256.94;6276691;22;20030;-69
2022/04/13 07:46:27;;;;;;;12.57;3.97;;;;;;;15.05;71.24;100261.94;6303459;22;20010;-72
2022/04/13 07:48:53;;;;;;;15.00;3.75;;;;;;;14.88;71.81;100264.41;6307785;22;20280;-71
2022/04/13 07:51:19;;;;;;;9.35;3.65;;;;;;;14.77;72.34;100270.09;6304596;22;20013;-71
2022/04/13 07:53:45;;;;;;;11.13;4.35;;;;;;;14.84;72.46;100265.03;6281079;22;20425;-71
2022/04/13 07:56:10;;;;;;;15.95;4.13;;;;;;;14.89;72.37;100266.88;6309778;22;19999;-69
2022/04/13 07:58:36;;;;;;;7.55;2.97;;;;;;;14.88;72.05;100272.69;6310774;22;20014;-69
2022/04/13 08:01:01;;;;;;;9.05;3.72;;;;;;;15.13;72.22;100283.31;6283219;22;20013;-71
2022/04/13 08:03:26;;;;;;;10.38;3.20;;;;;;;15.27;70.89;100280.59;6307473;22;20094;-69
2022/04/13 08:05:52;;;;;;;8.02;3.35;;;;;;;15.34;70.11;100291.22;6283136;22;20007;-68
2022/04/13 08:08:17;;;;;;;9.50;3.67;;;;;;;15.39;69.77;100287.56;6309349;22;20003;-70
2022/04/13 08:10:43;;;;;;;10.77;4.00;;;;;;;15.46;70.09;100288.84;6259029;22;20518;-70
2022/04/13 08:13:08;;;;;;;7.80;3.40;;;;;;;15.75;69.47;100293.25;6284343;22;20061;-71
2022/04/13 08:15:34;;;;;;;10.27;3.72;;;;;;;15.97;68.63;100302.81;6257612;22;20000;-70
2022/04/13 08:17:59;;;;;;;12.68;3.65;;;;;;;16.13;67.22;100306.91;6312663;22;20383;-71
2022/04/13 08:20:24;;;;;;;7.88;2.72;;;;;;;16.28;67.47;100296.69;6310632;22;20014;-70
2022/04/13 08:22:50;;;;;;;7.38;2.95;;;;;;;16.53;66.32;100306.41;6256485;22;20030;-70
2022/04/13 08:25:15;;;;;;;5.82;2.38;;;;;;;16.50;64.85;100305.06;6311974;22;20007;-70
2022/04/13 08:27:41;;;;;;;10.38;2.83;;;;;;;16.18;64.66;100315.09;6233655;22;20033;-70
2022/04/13 08:30:07;;;;;;;8.35;2.92;;;;;;;16.14;64.99;100325.09;6286055;22;20019;-70
2022/04/13 08:32:32;;;;;;;10.88;3.15;;;;;;;15.88;65.88;100328.31;6257801;22;20015;-70
2022/04/13 08:34:58;;;;;;;5.40;2.20;;;;;;;15.68;66.55;100323.16;6282694;22;20003;-70
2022/04/13 08:37:25;;;;;;;8.90;2.22;;;;;;;15.90;66.27;100330.78;6312213;22;20038;-70
2022/04/13 08:39:50;;;;;;;8.65;2.53;;;;;;;16.19;65.66;100332.44;6311265;22;20003;-70
2022/04/13 08:42:38;;;;;;;8.65;2.67;;;;;;;16.56;65.16;100334.19;6284558;22;20021;-71
2022/04/13 08:45:28;;;;;;;12.80;2.90;;;;;;;17.00;63.92;100336.59;6311248;22;20005;-70
2022/04/13 08:47:59;;;;;;;13.85;3.10;;;;;;;17.31;62.80;100352.44;6283478;22;20007;-71
2022/04/13 08:50:29;;;;;;;7.95;2.70;;;;;;;17.82;62.49;100353.91;6314764;22;20021;-70
2022/04/13 08:52:58;;;;;;;15.90;3.50;;;;;;;18.01;60.28;100353.72;6287195;22;20410;-70
2022/04/13 08:55:26;;;;;;;7.55;2.67;;;;;;;18.02;60.28;100357.28;6285149;22;20002;-70
2022/04/13 08:58:02;;;;;;;6.90;2.60;;;;;;;18.24;59.68;100365.56;6312857;22;20162;-71
2022/04/13 09:00:31;;;;;;;17.23;2.60;;;;;;;18.40;57.92;100367.88;6311289;22;20010;-71
2022/04/13 09:03:37;;;;;;;6.07;2.17;;;;;;;18.46;59.01;100377.69;6312296;22;20007;-70
2022/04/13 09:06:04;;;;;;;7.78;2.45;;;;;;;18.89;57.36;100379.78;6295391;22;20037;-70
2022/04/13 09:08:41;;;;;;;8.52;2.10;;;;;;;19.01;56.11;100388.28;6312407;22;20023;-70
2022/04/13 09:11:07;;;;;;;7.55;2.30;;;;;;;18.63;56.13;100383.28;6312623;22;20018;-71
2022/04/13 09:13:34;;;;;;;6.00;1.20;;;;;;;17.92;57.91;100392.41;6310398;22;20912;-70
2022/04/13 09:16:01;;;;;;;8.35;1.63;;;;;;;17.31;59.56;100377.31;6311105;22;20010;-70
2022/04/13 09:18:27;;;;;;;8.02;1.95;;;;;;;17.33;60.50;100386.09;6314476;22;20007;-70
2022/04/13 09:20:53;;;;;;;10.30;1.40;;;;;;;17.42;60.33;100384.22;6313344;22;20007;-70
2022/04/13 09:23:20;;;;;;;6.60;1.80;;;;;;;17.69;59.06;100388.00;6284397;22;20019;-70
2022/04/13 09:25:48;;;;;;;6.22;1.63;;;;;;;17.85;58.03;100385.66;6312751;22;20090;-69
2022/04/13 09:28:14;;;;;;;7.50;1.83;;;;;;;17.70;57.62;100389.66;6281690;22;20088;-71
2022/04/13 09:30:39;;;;;;;5.32;2.00;;;;;;;17.52;57.74;100395.06;6310143;22;20045;-67
2022/04/13 09:33:05;;;;;;;13.00;1.65;;;;;;;17.49;58.29;100395.66;6312135;22;20026;-68
2022/04/13 09:35:32;;;;;;;6.45;1.83;;;;;;;17.63;57.88;100396.41;6310109;22;19999;-69
2022/04/13 09:38:04;;;;;;;5.80;1.52;;;;;;;18.03;57.07;100403.22;6311192;22;20007;-70
2022/04/13 09:40:41;;;;;;;6.57;1.63;;;;;;;18.76;54.36;100400.91;6307345;22;20007;-69
2022/04/13 09:43:08;;;;;;;4.55;1.30;;;;;;;18.20;54.85;100408.84;6281884;22;20014;-69
2022/04/13 09:45:41;;;;;;;6.00;1.80;;;;;;;17.46;56.82;100407.34;6282340;22;20003;-69
2022/04/13 09:48:08;;;;;;;6.45;1.63;;;;;;;17.19;58.02;100409.06;6309206;22;20011;-70
2022/04/13 09:50:34;;;;;;;6.57;1.77;;;;;;;16.73;59.40;100407.25;6284309;22;20007;-72
2022/04/13 09:53:03;;;;;;;7.78;1.40;;;;;;;16.47;60.85;100405.03;6308558;22;20064;-71
2022/04/13 09:55:29;;;;;;;9.00;1.90;;;;;;;16.58;60.44;100395.41;6263141;22;20018;-71
2022/04/13 09:58:06;;;;;;;8.88;2.10;;;;;;;16.95;59.79;100405.75;6285729;22;20003;-71
2022/04/13 10:00:33;;;;;;;7.95;2.40;;;;;;;17.36;58.72;100407.56;6315277;22;20010;-71
2022/04/13 10:03:18;;;;;;;14.07;2.42;;;;;;;17.87;58.13;100409.13;6312741;22;20021;-71
2022/04/13 10:05:52;;;;;;;4.75;2.05;;;;;;;19.18;56.30;100414.38;6289423;22;20007;-70
2022/04/13 10:08:23;;;;;;;4.95;1.42;;;;;;;20.48;52.11;100415.34;6289714;22;20015;-71
2022/04/13 10:10:50;;;;;;;5.35;1.70;;;;;;;20.51;49.80;100419.41;6316062;22;20040;-71
2022/04/13 10:13:31;;;;;;;7.47;1.80;;;;;;;19.88;50.49;100420.72;6283547;22;21116;-71
2022/04/13 10:15:57;;;;;;;5.32;1.40;;;;;;;18.98;52.47;100422.19;6311753;22;19995;-71
2022/04/13 10:18:23;;;;;;;6.45;1.88;;;;;;;18.13;54.12;100425.06;6312464;22;20003;-71
2022/04/13 10:20:49;;;;;;;8.80;1.70;;;;;;;17.30;56.28;100420.69;6308073;22;20018;-71
2022/04/13 10:23:14;;;;;;;3.45;1.50;;;;;;;16.67;58.63;100427.81;6307041;22;20030;-71
2022/04/13 10:25:41;;;;;;;9.15;2.05;;;;;;;16.22;60.41;100431.16;6307612;22;20041;-70
2022/04/13 10:28:07;;;;;;;6.97;2.15;;;;;;;15.93;61.77;100425.88;6311544;22;20602;-71
2022/04/13 10:30:35;;;;;;;4.50;1.90;;;;;;;15.62;63.33;100431.88;6309230;22;20054;-71
2022/04/13 10:33:09;;;;;;;7.35;2.08;;;;;;;15.36;64.06;100432.25;6310920;22;20003;-70
2022/04/13 10:35:45;;;;;;;2.80;1.70;;;;;;;15.26;64.69;100435.16;6311292;22;20017;-70
2022/04/13 10:38:14;;;;;;;9.32;2.17;;;;;;;15.08;65.74;100434.84;6283972;22;20014;-71
2022/04/13 10:40:42;;;;;;;4.68;1.77;;;;;;;14.97;66.18;100430.59;6281095;22;20029;-71
2022/04/13 10:43:12;;;;;;;9.32;2.22;;;;;;;14.84;67.35;100432.94;6284595;22;20099;-70
2022/04/13 10:45:45;;;;;;;17.70;3.20;;;;;;;14.62;70.24;100438.19;6283255;22;20426;-71
2022/04/13 10:48:17;;;;;;;9.13;2.88;;;;;;;14.05;77.01;100430.47;6310759;22;20062;-70
2022/04/13 10:50:55;;;;;;;12.38;2.97;;;;;;;13.62;79.28;100438.53;6312189;22;20058;-71
2022/04/13 10:53:25;;;;;;;8.05;2.05;;;;;;;13.24;81.04;100439.03;6310229;22;20007;-72
2022/04/13 10:56:01;;;;;;;11.82;2.53;;;;;;;13.02;81.69;100430.34;6311793;22;20003;-70
2022/04/13 10:58:33;;;;;;;8.48;3.03;;;;;;;13.01;83.48;100448.75;6282737;22;20279;-71
2022/04/13 11:01:04;;;;;;;5.80;2.40;;;;;;;13.17;83.72;100440.44;6308648;22;20003;-71
2022/04/13 11:03:35;;;;;;;6.30;2.22;;;;;;;13.49;82.14;100447.41;6283073;22;20010;-71
2022/04/13 11:06:04;;;;;;;6.72;2.60;;;;;;;13.97;81.01;100442.09;6312862;22;20014;-71
2022/04/13 11:08:36;;;;;;;12.27;2.67;;;;;;;14.75;79.45;100451.25;6310639;22;20481;-70
2022/04/13 11:11:03;;;;;;;8.38;2.78;;;;;;;15.45;76.37;100441.50;6313730;22;20006;-70
2022/04/13 11:13:33;;;;;;;11.02;3.30;;;;;;;16.19;73.48;100448.31;6259707;22;20011;-70
2022/04/13 11:16:14;;;;;;;5.85;2.30;;;;;;;17.10;72.09;100449.63;6309761;22;20002;-69
2022/04/13 11:18:46;;;;;;;9.57;2.90;;;;;;;17.68;67.13;100447.19;6310289;22;20028;-71
2022/04/13 11:21:11;;;;;;;5.93;2.22;;;;;;;18.49;65.19;100455.38;6283464;22;20003;-70
2022/04/13 11:23:54;;;;;;;12.35;2.90;;;;;;;18.84;62.50;100455.50;6315242;22;20045;-69
2022/04/13 11:26:33;;;;;;;5.75;1.95;;;;;;;18.91;61.84;100448.72;6284804;22;20022;-70